createdAt,value
2023-02-14T00:01:31.867Z,99773.56
2023-02-14T00:04:35.030Z,99778.00
2023-02-14T00:07:37.577Z,99776.34
2023-02-14T00:10:40.361Z,99781.34
2023-02-14T00:14:06.123Z,99770.00
2023-02-14T00:17:08.807Z,99774.28
2023-02-14T00:20:11.515Z,99766.50
2023-02-14T00:23:14.103Z,99766.56
2023-02-14T00:26:16.617Z,99761.31
2023-02-14T00:29:22.048Z,99765.59
2023-02-14T00:32:26.294Z,99764.75
2023-02-14T00:35:29.333Z,99764.50
2023-02-14T00:38:31.813Z,99767.00
2023-02-14T00:41:35.028Z,99755.69
2023-02-14T00:44:38.249Z,99762.56
2023-02-14T00:47:40.882Z,99754.00
2023-02-14T00:50:45.913Z,99762.41
2023-02-14T00:53:50.246Z,99752.53
2023-02-14T00:56:53.533Z,99757.97
2023-02-14T00:59:56.359Z,99753.72
2023-02-14T01:03:02.616Z,99757.38
2023-02-14T01:06:06.123Z,99759.13
2023-02-14T01:09:08.751Z,99762.69
2023-02-14T01:12:11.589Z,99756.59
2023-02-14T01:15:14.461Z,99752.38
2023-02-14T01:18:18.871Z,99749.66
2023-02-14T01:21:25.989Z,99746.75
2023-02-14T01:24:28.613Z,99745.53
2023-02-14T01:27:31.421Z,99738.75
2023-02-14T01:30:33.957Z,99740.47
2023-02-14T01:33:36.943Z,99736.16
2023-02-14T01:36:40.353Z,99735.06
2023-02-14T01:39:43.320Z,99734.31
2023-02-14T01:42:50.030Z,99725.47
2023-02-14T01:45:53.177Z,99731.50
2023-02-14T01:48:59.402Z,99738.22
2023-02-14T01:52:25.128Z,99729.41
2023-02-14T01:55:30.926Z,99725.34
2023-02-14T01:58:36.595Z,99714.25
2023-02-14T02:01:39.404Z,99715.84
2023-02-14T02:04:45.184Z,99714.97
2023-02-14T02:07:47.842Z,99713.25
2023-02-14T02:10:50.605Z,99715.22
2023-02-14T02:13:56.067Z,99717.81
2023-02-14T02:17:01.561Z,99713.66
2023-02-14T02:20:29.232Z,99698.34
2023-02-14T02:23:52.140Z,99699.28
2023-02-14T02:27:13.017Z,99701.06
2023-02-14T02:30:48.665Z,99699.88
2023-02-14T02:34:13.083Z,99706.75
2023-02-14T02:37:26.199Z,99712.19
2023-02-14T02:40:42.138Z,99693.25
2023-02-14T02:44:00.676Z,99702.34
2023-02-14T02:47:25.133Z,99697.03
2023-02-14T02:50:53.272Z,99700.13
2023-02-14T02:53:58.206Z,99687.47
2023-02-14T02:57:01.741Z,99689.03
2023-02-14T03:00:06.343Z,99687.69
2023-02-14T03:03:28.337Z,99684.84
2023-02-14T03:06:31.998Z,99694.69
2023-02-14T03:09:41.729Z,99688.63
2023-02-14T03:13:05.392Z,99688.75
2023-02-14T03:16:26.287Z,99687.22
2023-02-14T03:19:55.238Z,99696.19
2023-02-14T03:23:26.532Z,99693.47
2023-02-14T03:27:06.903Z,99680.63
2023-02-14T03:30:42.440Z,99695.34
2023-02-14T03:33:54.617Z,99688.31
2023-02-14T03:37:12.014Z,99695.16
2023-02-14T03:40:28.753Z,99688.47
2023-02-14T03:44:08.288Z,99689.91
2023-02-14T03:47:18.731Z,99691.72
2023-02-14T03:50:21.317Z,99693.59
2023-02-14T03:53:26.838Z,99682.41
2023-02-14T03:56:42.446Z,99694.66
2023-02-14T03:59:45.216Z,99686.66
2023-02-14T04:02:52.047Z,99694.72
2023-02-14T04:05:55.102Z,99694.25
2023-02-14T04:08:57.562Z,99705.22
2023-02-14T04:12:00.099Z,99693.00
2023-02-14T04:15:02.830Z,99695.94
2023-02-14T04:18:23.869Z,99687.22
2023-02-14T04:21:26.515Z,99703.19
2023-02-14T04:24:29.137Z,99691.84
2023-02-14T04:27:32.049Z,99690.88
2023-02-14T04:30:34.653Z,99700.56
2023-02-14T04:33:37.410Z,99685.22
2023-02-14T04:36:39.979Z,99686.72
2023-02-14T04:39:42.583Z,99677.31
2023-02-14T04:42:45.975Z,99679.13
2023-02-14T04:45:48.490Z,99675.69
2023-02-14T04:48:51.319Z,99679.91
2023-02-14T04:51:53.922Z,99688.47
2023-02-14T04:54:56.689Z,99679.66
2023-02-14T04:57:59.289Z,99674.03
2023-02-14T05:01:02.348Z,99671.31
2023-02-14T05:04:05.406Z,99670.59
2023-02-14T05:07:08.258Z,99677.47
2023-02-14T05:10:11.205Z,99676.78
2023-02-14T05:13:14.663Z,99665.81
2023-02-14T05:16:17.592Z,99680.66
2023-02-14T05:19:20.319Z,99678.03
2023-02-14T05:22:24.077Z,99680.53
2023-02-14T05:25:26.855Z,99689.25
2023-02-14T05:28:29.648Z,99678.75
2023-02-14T05:31:32.396Z,99677.31
2023-02-14T05:34:35.199Z,99681.59
2023-02-14T05:37:37.961Z,99681.78
2023-02-14T05:40:41.336Z,99687.09
2023-02-14T05:43:43.971Z,99687.81
2023-02-14T05:46:46.872Z,99685.41
2023-02-14T05:49:49.783Z,99678.41
2023-02-14T05:52:52.532Z,99684.56
2023-02-14T05:55:55.157Z,99683.53
2023-02-14T05:58:58.052Z,99686.25
2023-02-14T06:02:00.849Z,99689.63
2023-02-14T06:05:03.921Z,99693.00
2023-02-14T06:08:06.708Z,99688.06
2023-02-14T06:11:09.507Z,99691.44
2023-02-14T06:14:12.141Z,99695.75
2023-02-14T06:17:14.718Z,99695.28
2023-02-14T06:20:17.534Z,99689.38
2023-02-14T06:23:20.105Z,99713.56
2023-02-14T06:26:23.264Z,99719.34
2023-02-14T06:29:26.125Z,99710.66
2023-02-14T06:32:29.012Z,99721.88
2023-02-14T06:35:31.801Z,99720.91
2023-02-14T06:38:34.312Z,99716.38
2023-02-14T06:41:37.431Z,99709.88
2023-02-14T06:44:39.987Z,99718.50
2023-02-14T06:47:42.850Z,99719.41
2023-02-14T06:50:47.351Z,99722.06
2023-02-14T06:53:50.162Z,99718.75
2023-02-14T06:56:52.707Z,99714.53
2023-02-14T06:59:55.464Z,99714.41
2023-02-14T07:02:58.395Z,99725.56
2023-02-14T07:06:01.029Z,99719.66
2023-02-14T07:09:04.226Z,99713.59
2023-02-14T07:12:07.206Z,99720.56
2023-02-14T07:15:12.518Z,99721.41
2023-02-14T07:18:15.123Z,99729.47
2023-02-14T07:21:17.993Z,99727.53
2023-02-14T07:24:20.731Z,99723.06
2023-02-14T07:27:23.411Z,99726.69
2023-02-14T07:30:26.230Z,99721.19
2023-02-14T07:33:28.783Z,99729.75
2023-02-14T07:36:31.594Z,99731.97
2023-02-14T07:39:34.475Z,99732.69
2023-02-14T07:42:37.496Z,99732.88
2023-02-14T07:45:40.533Z,99745.88
2023-02-14T07:48:43.513Z,99747.56
2023-02-14T07:51:46.278Z,99745.63
2023-02-14T07:54:49.327Z,99744.56
2023-02-14T07:57:52.368Z,99740.13
2023-02-14T08:00:55.440Z,99753.41
2023-02-14T08:03:58.465Z,99749.81
2023-02-14T08:07:01.354Z,99748.97
2023-02-14T08:10:04.427Z,99746.91
2023-02-14T08:13:07.292Z,99754.84
2023-02-14T08:16:12.108Z,99751.84
2023-02-14T08:19:15.052Z,99765.34
2023-02-14T08:22:19.553Z,99759.50
2023-02-14T08:25:22.535Z,99766.41
2023-02-14T08:28:25.806Z,99766.28
2023-02-14T08:31:35.783Z,99763.41
2023-02-14T08:34:39.041Z,99764.00
2023-02-14T08:37:41.716Z,99769.63
2023-02-14T08:40:44.994Z,99763.09
2023-02-14T08:43:48.040Z,99771.09
2023-02-14T08:46:50.670Z,99769.44
2023-02-14T08:49:53.587Z,99768.19
2023-02-14T08:52:56.387Z,99777.16
2023-02-14T08:56:04.058Z,99782.94
2023-02-14T08:59:07.053Z,99798.75
2023-02-14T09:02:13.744Z,99790.41
2023-02-14T09:05:16.410Z,99787.44
2023-02-14T09:08:19.059Z,99796.44
2023-02-14T09:11:24.412Z,99784.22
2023-02-14T09:14:27.279Z,99790.81
2023-02-14T09:17:30.978Z,99793.03
2023-02-14T09:20:33.851Z,99803.47
2023-02-14T09:23:36.670Z,99798.38
2023-02-14T09:26:41.123Z,99801.56
2023-02-14T09:29:43.926Z,99800.53
2023-02-14T09:32:47.253Z,99795.09
2023-02-14T09:36:08.767Z,99795.75
2023-02-14T09:39:12.492Z,99806.22
2023-02-14T09:42:49.876Z,99804.16
2023-02-14T09:45:55.419Z,99807.06
2023-02-14T09:48:58.849Z,99810.94
2023-02-14T09:52:02.882Z,99806.88
2023-02-14T09:55:14.001Z,99807.75
2023-02-14T09:58:24.028Z,99813.47
2023-02-14T10:01:31.063Z,99805.75
2023-02-14T10:04:45.480Z,99811.53
2023-02-14T10:07:58.025Z,99808.78
2023-02-14T10:11:12.420Z,99810.28
2023-02-14T10:14:18.845Z,99809.84
2023-02-14T10:17:51.144Z,99803.38
2023-02-14T10:20:57.651Z,99812.88
2023-02-14T10:24:31.152Z,99799.88
2023-02-14T10:27:46.491Z,99808.34
2023-02-14T10:31:32.643Z,99820.03
2023-02-14T10:34:48.869Z,99810.28
2023-02-14T10:38:04.666Z,99795.97
2023-02-14T10:41:23.812Z,99796.28
2023-02-14T10:44:38.912Z,99798.41
2023-02-14T10:47:47.187Z,99795.00
2023-02-14T10:51:04.618Z,99781.16
2023-02-14T10:54:22.165Z,99777.44
2023-02-14T10:57:35.073Z,99781.50
2023-02-14T11:00:52.574Z,99771.94
2023-02-14T11:04:03.963Z,99765.72
2023-02-14T11:07:13.733Z,99764.38
2023-02-14T11:10:17.910Z,99772.78
2023-02-14T11:13:29.717Z,99764.94
2023-02-14T11:16:35.587Z,99782.09
2023-02-14T11:19:39.052Z,99760.97
2023-02-14T11:22:41.988Z,99754.09
2023-02-14T11:25:53.895Z,99755.59
2023-02-14T11:29:10.396Z,99745.78
2023-02-14T11:32:24.312Z,99747.50
2023-02-14T11:35:34.128Z,99747.31
2023-02-14T11:38:42.408Z,99745.31
2023-02-14T11:41:52.056Z,99748.88
2023-02-14T11:44:56.429Z,99750.00
2023-02-14T11:48:15.067Z,99744.84
2023-02-14T11:51:18.468Z,99764.06
2023-02-14T11:54:32.922Z,99738.91
2023-02-14T11:57:38.677Z,99754.06
2023-02-14T12:00:41.980Z,99743.47
2023-02-14T12:03:47.063Z,99737.22
2023-02-14T12:06:49.843Z,99734.31
2023-02-14T12:10:11.242Z,99731.47
2023-02-14T12:13:13.983Z,99721.94
2023-02-14T12:16:23.931Z,99719.19
2023-02-14T12:19:47.715Z,99705.47
2023-02-14T12:22:54.775Z,99710.97
2023-02-14T12:26:05.164Z,99714.16
2023-02-14T12:29:26.644Z,99700.84
2023-02-14T12:32:31.586Z,99695.78
2023-02-14T12:35:37.501Z,99704.25
2023-02-14T12:38:52.394Z,99685.28
2023-02-14T12:42:19.973Z,99694.44
2023-02-14T12:45:52.542Z,99697.78
2023-02-14T12:49:27.261Z,99703.53
2023-02-14T12:52:45.547Z,99678.66
2023-02-14T12:56:07.917Z,99679.47
2023-02-14T12:59:55.591Z,99678.47
2023-02-14T13:03:41.803Z,99683.88
2023-02-14T13:06:48.906Z,99671.09
2023-02-14T13:09:54.343Z,99678.81
2023-02-14T13:13:21.930Z,99674.81
2023-02-14T13:16:31.582Z,99671.91
2023-02-14T13:19:48.167Z,99684.72
2023-02-14T13:22:51.324Z,99681.56
2023-02-14T13:26:01.804Z,99670.09
2023-02-14T13:29:11.782Z,99658.28
2023-02-14T13:32:17.322Z,99668.38
2023-02-14T13:35:22.315Z,99671.91
2023-02-14T13:38:26.389Z,99672.03
2023-02-14T13:41:29.065Z,99668.91
2023-02-14T13:44:44.420Z,99687.56
2023-02-14T13:47:47.520Z,99671.25
2023-02-14T13:50:59.564Z,99662.78
2023-02-14T13:54:02.541Z,99655.25
2023-02-14T13:57:31.676Z,99671.72
2023-02-14T14:00:43.218Z,99661.41
2023-02-14T14:04:07.571Z,99678.00
2023-02-14T14:07:13.946Z,99663.44
2023-02-14T14:10:45.046Z,99668.59
2023-02-14T14:13:51.430Z,99659.94
2023-02-14T14:16:59.832Z,99660.00
2023-02-14T14:20:25.075Z,99655.41
2023-02-14T14:23:38.180Z,99661.38
2023-02-14T14:26:47.496Z,99660.28
2023-02-14T14:29:55.665Z,99661.19
2023-02-14T14:33:32.677Z,99662.06
2023-02-14T14:36:35.608Z,99655.19
2023-02-14T14:39:40.165Z,99658.09
2023-02-14T14:42:43.791Z,99655.00
2023-02-14T14:45:47.867Z,99655.41
2023-02-14T14:48:52.417Z,99649.13
2023-02-14T14:51:56.118Z,99650.47
2023-02-14T14:55:00.041Z,99651.63
2023-02-14T14:58:05.908Z,99655.94
2023-02-14T15:01:13.694Z,99658.31
2023-02-14T15:04:19.405Z,99660.97
2023-02-14T15:07:30.383Z,99647.00
2023-02-14T15:10:33.019Z,99651.34
2023-02-14T15:13:51.426Z,99656.44
2023-02-14T15:16:58.030Z,99653.25
2023-02-14T15:20:04.631Z,99658.31
2023-02-14T15:23:08.030Z,99654.63
2023-02-14T15:26:21.688Z,99657.53
2023-02-14T15:29:27.685Z,99652.63
2023-02-14T15:32:32.766Z,99660.44
2023-02-14T15:35:38.507Z,99657.25
2023-02-14T15:38:42.001Z,99658.69
2023-02-14T15:41:45.726Z,99659.66
2023-02-14T15:44:49.487Z,99669.47
2023-02-14T15:47:55.073Z,99669.66
2023-02-14T15:51:00.165Z,99667.75
2023-02-14T15:54:08.603Z,99673.84
2023-02-14T15:57:23.297Z,99669.03
2023-02-14T16:00:27.220Z,99666.91
2023-02-14T16:03:34.255Z,99674.41
2023-02-14T16:06:45.123Z,99666.09
2023-02-14T16:09:48.495Z,99673.75
2023-02-14T16:13:03.396Z,99667.38
2023-02-14T16:16:09.458Z,99667.09
2023-02-14T16:19:35.914Z,99669.88
2023-02-14T16:22:38.885Z,99669.56
2023-02-14T16:25:42.103Z,99670.31
2023-02-14T16:28:45.285Z,99676.03
2023-02-14T16:35:19.166Z,99681.84
2023-02-14T16:38:23.011Z,99682.09
2023-02-14T16:41:27.868Z,99679.81
2023-02-14T16:44:30.648Z,99686.78
2023-02-14T16:47:33.730Z,99695.22
2023-02-14T16:50:38.332Z,99690.34
2023-02-14T16:53:46.300Z,99694.03
2023-02-14T16:56:52.618Z,99697.22
2023-02-14T16:59:57.498Z,99699.09
2023-02-14T17:03:13.989Z,99698.25
2023-02-14T17:06:28.619Z,99705.06
2023-02-14T17:09:40.649Z,99711.19
2023-02-14T17:12:44.823Z,99706.41
2023-02-14T17:15:48.108Z,99709.59
2023-02-14T17:18:52.576Z,99709.59
2023-02-14T17:21:58.162Z,99702.47
2023-02-14T17:25:00.925Z,99701.50
2023-02-14T17:28:03.907Z,99700.91
2023-02-14T17:31:06.908Z,99692.56
2023-02-14T17:34:11.094Z,99705.81
2023-02-14T17:37:14.565Z,99698.56
2023-02-14T17:40:17.677Z,99696.09
2023-02-14T17:43:20.483Z,99694.38
2023-02-14T17:46:23.422Z,99693.88
2023-02-14T17:49:27.061Z,99693.41
2023-02-14T17:52:30.355Z,99692.56
2023-02-14T17:55:33.009Z,99693.41
2023-02-14T17:58:36.824Z,99695.59
2023-02-14T18:01:39.873Z,99690.69
2023-02-14T18:04:42.606Z,99685.31
2023-02-14T18:07:46.079Z,99689.38
2023-02-14T18:10:49.070Z,99687.06
2023-02-14T18:13:53.631Z,99690.88
2023-02-14T18:16:56.743Z,99681.81
2023-02-14T18:19:59.782Z,99682.94
2023-02-14T18:23:07.423Z,99677.06
2023-02-14T18:26:15.080Z,99673.13
2023-02-14T18:29:18.530Z,99671.44
2023-02-14T18:32:22.218Z,99672.28
2023-02-14T18:35:28.294Z,99669.78
2023-02-14T18:38:31.675Z,99666.94
2023-02-14T18:41:42.241Z,99675.72
2023-02-14T18:44:45.054Z,99674.25
2023-02-14T18:47:48.335Z,99669.59
2023-02-14T18:50:52.898Z,99672.06
2023-02-14T18:53:57.796Z,99650.13
2023-02-14T18:57:00.729Z,99661.41
2023-02-14T19:00:07.196Z,99671.53
2023-02-14T19:03:17.297Z,99667.88
2023-02-14T19:06:22.594Z,99674.41
2023-02-14T19:09:27.791Z,99664.63
2023-02-14T19:12:35.934Z,99665.75
2023-02-14T19:15:39.096Z,99670.66
2023-02-14T19:18:42.341Z,99662.97
2023-02-14T19:21:47.284Z,99664.13
2023-02-14T19:24:53.927Z,99661.63
2023-02-14T19:27:57.007Z,99666.00
2023-02-14T19:31:00.246Z,99665.34
2023-02-14T19:34:05.127Z,99656.13
2023-02-14T19:37:07.955Z,99656.31
2023-02-14T19:40:11.127Z,99654.91
2023-02-14T19:43:14.085Z,99654.41
2023-02-14T19:46:19.418Z,99650.94
2023-02-14T19:49:22.606Z,99656.09
2023-02-14T19:52:28.511Z,99648.84
2023-02-14T19:55:31.521Z,99662.44
2023-02-14T19:58:34.287Z,99654.78
2023-02-14T20:01:42.867Z,99650.50
2023-02-14T20:04:46.200Z,99655.28
2023-02-14T20:07:52.190Z,99657.03
2023-02-14T20:10:54.978Z,99657.13
2023-02-14T20:13:58.818Z,99651.41
2023-02-14T20:17:05.124Z,99656.66
2023-02-14T20:20:13.605Z,99657.94
2023-02-14T20:23:16.666Z,99656.72
2023-02-14T20:26:20.123Z,99659.22
2023-02-14T20:29:23.759Z,99655.63
2023-02-14T20:32:26.699Z,99650.56
2023-02-14T20:35:34.324Z,99649.06
2023-02-14T20:38:37.486Z,99653.25
2023-02-14T20:41:40.411Z,99649.44
2023-02-14T20:44:43.440Z,99662.75
2023-02-14T20:47:49.089Z,99650.25
2023-02-14T20:50:52.011Z,99658.88
2023-02-14T20:53:58.650Z,99654.44
2023-02-14T20:57:02.145Z,99655.19
2023-02-14T21:00:06.403Z,99650.34
2023-02-14T21:03:09.367Z,99653.03
2023-02-14T21:06:12.828Z,99653.41
2023-02-14T21:09:16.952Z,99648.59
2023-02-14T21:12:21.042Z,99647.91
2023-02-14T21:15:23.649Z,99640.91
2023-02-14T21:18:26.559Z,99643.44
2023-02-14T21:21:36.495Z,99645.91
2023-02-14T21:24:40.650Z,99650.97
2023-02-14T21:27:43.774Z,99642.50
2023-02-14T21:30:46.455Z,99637.28
2023-02-14T21:33:54.216Z,99638.22
2023-02-14T21:36:57.032Z,99645.31
2023-02-14T21:39:59.710Z,99640.16
2023-02-14T21:43:02.550Z,99632.59
2023-02-14T21:46:07.384Z,99640.06
2023-02-14T21:49:31.220Z,99634.31
2023-02-14T21:52:34.237Z,99631.59
2023-02-14T21:55:39.315Z,99630.00
2023-02-14T21:58:42.233Z,99625.63
2023-02-14T22:01:45.108Z,99614.50
2023-02-14T22:04:48.057Z,99614.50
2023-02-14T22:07:51.133Z,99613.41
2023-02-14T22:10:53.773Z,99621.00
2023-02-14T22:13:57.088Z,99619.59
2023-02-14T22:16:59.771Z,99620.59
2023-02-14T22:20:02.961Z,99618.16
2023-02-14T22:23:05.603Z,99622.38
2023-02-14T22:26:43.351Z,99629.38
2023-02-14T22:29:47.928Z,99618.16
2023-02-14T22:32:52.278Z,99631.88
2023-02-14T22:35:56.221Z,99629.44
2023-02-14T22:38:58.892Z,99622.38
2023-02-14T22:42:05.558Z,99624.69
2023-02-14T22:45:09.056Z,99625.50
2023-02-14T22:48:11.846Z,99624.56
2023-02-14T22:51:22.094Z,99619.41
2023-02-14T22:54:24.714Z,99618.59
2023-02-14T22:57:27.339Z,99615.81
2023-02-14T23:00:29.977Z,99609.34
2023-02-14T23:03:32.861Z,99610.19
2023-02-14T23:06:36.620Z,99611.03
2023-02-14T23:09:39.272Z,99602.75
2023-02-14T23:13:00.654Z,99608.81
2023-02-14T23:16:22.123Z,99606.41
2023-02-14T23:19:49.367Z,99603.16
2023-02-14T23:22:52.018Z,99601.13
2023-02-14T23:25:54.645Z,99596.06
2023-02-14T23:28:57.244Z,99593.63
2023-02-14T23:32:00.286Z,99598.13
2023-02-14T23:35:03.150Z,99586.72
2023-02-14T23:38:05.700Z,99597.22
2023-02-14T23:41:28.167Z,99584.16
2023-02-14T23:44:31.007Z,99585.88
2023-02-14T23:47:34.480Z,99590.16
2023-02-14T23:50:37.245Z,99587.53
2023-02-14T23:53:39.840Z,99586.16
2023-02-14T23:56:43.526Z,99591.28
2023-02-14T23:59:46.075Z,99593.16
